Time;durP1;ratioP1;P1;durP2;ratioP2;P2;SDS_P1;SDS_P2;PMS_P1;PMS_P2;Temp;Humidity;BMP_temperature;BMP_pressure;BME280_temperature;BME280_humidity;BME280_pressure;Samples;Min_cycle;Max_cycle;Signal;HPM_P1;HPM_P2
2023/04/24 00:01:29;;;;;;;;;;;;;;;13.16;63.75;96307.72;4235366;27;5970;-69
2023/04/24 00:03:32;;;;;;;;;;;;;;;13.22;64.05;96306.84;4234843;27;5632;-68
2023/04/24 00:05:35;;;;;;;;;;;;;;;13.35;64.01;96302.19;4233869;28;5683;-69
2023/04/24 00:07:38;;;;;;;;;;;;;;;13.33;63.83;96298.13;4248396;27;5628;-67
2023/04/24 00:09:41;;;;;;;;;;;;;;;13.22;63.98;96296.22;4238509;27;5638;-67
2023/04/24 00:11:46;;;;;;;;;;;;;;;13.23;64.39;96298.66;4244819;27;5625;-67
2023/04/24 00:13:49;;;;;;;;;;;;;;;13.27;64.33;96291.88;4243186;27;5613;-69
2023/04/24 00:15:51;;;;;;;;;;;;;;;13.20;64.18;96296.44;4237292;27;6218;-69
2023/04/24 00:17:54;;;;;;;;;;;;;;;13.16;64.02;96300.56;4237411;27;5646;-69
2023/04/24 00:19:59;;;;;;;;;;;;;;;13.10;64.36;96290.81;4236487;27;5729;-69
2023/04/24 00:22:02;;;;;;;;;;;;;;;13.21;64.23;96294.59;4244833;27;5099;-67
2023/04/24 00:24:05;;;;;;;;;;;;;;;13.33;64.13;96298.13;4235421;27;5657;-67
2023/04/24 00:26:08;;;;;;;;;;;;;;;13.42;64.42;96298.66;4234966;28;5794;-67
2023/04/24 00:28:13;;;;;;;;;;;;;;;13.50;64.29;96293.06;4231316;27;5647;-67
2023/04/24 00:30:16;;;;;;;;;;;;;;;13.57;63.96;96296.41;4240738;27;5625;-67
2023/04/24 00:32:18;;;;;;;;;;;;;;;13.61;64.06;96301.06;4245537;27;6422;-67
2023/04/24 00:34:21;;;;;;;;;;;;;;;13.65;63.99;96304.88;4242584;27;5869;-67
2023/04/24 00:36:24;;;;;;;;;;;;;;;13.73;63.83;96300.31;4242208;27;5634;-68
2023/04/24 00:38:27;;;;;;;;;;;;;;;13.78;64.03;96300.44;4237868;27;5789;-67
2023/04/24 00:40:31;;;;;;;;;;;;;;;13.80;63.98;96295.69;4240012;27;5638;-69
2023/04/24 00:42:36;;;;;;;;;;;;;;;13.72;64.17;96290.72;4235353;28;5670;-67
2023/04/24 00:44:40;;;;;;;;;;;;;;;13.62;64.07;96296.56;4235132;28;5737;-68
2023/04/24 00:46:43;;;;;;;;;;;;;;;13.54;64.15;96305.66;4240730;27;5625;-66
2023/04/24 00:48:47;;;;;;;;;;;;;;;13.57;64.25;96320.31;4239954;27;5616;-67
2023/04/24 00:50:50;;;;;;;;;;;;;;;13.62;63.85;96321.28;4233912;27;5647;-67
2023/04/24 00:52:53;;;;;;;;;;;;;;;13.62;64.22;96326.59;4243602;27;5646;-67
2023/04/24 00:54:55;;;;;;;;;;;;;;;13.69;64.11;96310.56;4234730;28;5654;-67
2023/04/24 00:56:58;;;;;;;;;;;;;;;13.74;63.81;96315.22;4234945;28;5756;-67
2023/04/24 00:59:01;;;;;;;;;;;;;;;13.75;63.95;96314.97;4236216;27;5808;-67
2023/04/24 01:01:06;;;;;;;;;;;;;;;13.74;63.71;96299.28;4234018;27;5695;-67
2023/04/24 01:03:10;;;;;;;;;;;;;;;13.71;63.98;96310.34;4234740;28;5654;-67
2023/04/24 01:05:15;;;;;;;;;;;;;;;13.73;63.82;96306.44;4232627;28;5658;-67
2023/04/24 01:07:20;;;;;;;;;;;;;;;13.78;64.02;96298.59;4234550;27;6392;-67
2023/04/24 01:09:24;;;;;;;;;;;;;;;13.84;63.66;96300.34;4250766;27;5629;-67
2023/04/24 01:11:27;;;;;;;;;;;;;;;13.86;64.01;96300.13;4239457;27;5642;-68
2023/04/24 01:13:30;;;;;;;;;;;;;;;13.88;63.55;96296.22;4234460;28;5657;-67
2023/04/24 01:15:33;;;;;;;;;;;;;;;13.91;63.77;96290.44;4232859;28;5785;-67
2023/04/24 01:17:38;;;;;;;;;;;;;;;13.94;63.56;96294.50;4234280;28;5733;-67
2023/04/24 01:19:41;;;;;;;;;;;;;;;13.96;63.79;96293.25;4231755;28;5631;-67
2023/04/24 01:21:45;;;;;;;;;;;;;;;14.00;63.53;96293.59;4233733;28;5650;-66
2023/04/24 01:23:50;;;;;;;;;;;;;;;14.01;63.77;96300.53;4233194;28;5915;-67
2023/04/24 01:25:53;;;;;;;;;;;;;;;14.03;63.54;96297.63;4245017;27;7448;-66
2023/04/24 01:27:56;;;;;;;;;;;;;;;14.02;63.59;96304.78;4234750;27;5677;-66
2023/04/24 01:29:59;;;;;;;;;;;;;;;14.04;63.40;96296.59;4241289;27;6493;-67
2023/04/24 01:32:02;;;;;;;;;;;;;;;14.07;63.50;96298.81;4234509;27;5675;-67
2023/04/24 01:34:05;;;;;;;;;;;;;;;14.07;63.41;96296.97;4235826;27;5654;-66
2023/04/24 01:36:09;;;;;;;;;;;;;;;14.07;63.27;96294.31;4237563;27;5658;-67
2023/04/24 01:38:12;;;;;;;;;;;;;;;14.08;63.52;96295.13;4234836;28;6897;-67
2023/04/24 01:40:17;;;;;;;;;;;;;;;14.10;63.39;96293.03;4234649;28;5654;-67
2023/04/24 01:42:20;;;;;;;;;;;;;;;14.12;63.17;96296.28;4236132;27;5657;-67
2023/04/24 01:44:23;;;;;;;;;;;;;;;14.12;63.49;96290.97;4251323;27;5632;-67
2023/04/24 01:46:26;;;;;;;;;;;;;;;14.11;63.02;96289.34;4249020;27;5621;-68
2023/04/24 01:48:30;;;;;;;;;;;;;;;14.12;63.48;96286.44;4237189;27;5847;-67
2023/04/24 01:50:33;;;;;;;;;;;;;;;14.14;63.37;96283.56;4239209;27;5744;-66
2023/04/24 01:52:36;;;;;;;;;;;;;;;14.17;63.43;96283.13;4239282;27;5629;-67
2023/04/24 01:54:39;;;;;;;;;;;;;;;14.20;63.47;96287.97;4242054;27;5684;-66
2023/04/24 01:56:43;;;;;;;;;;;;;;;14.24;63.30;96278.50;4241665;27;5629;-66
2023/04/24 01:58:46;;;;;;;;;;;;;;;14.25;63.18;96280.13;4236565;27;5741;-66
2023/04/24 02:00:49;;;;;;;;;;;;;;;14.27;63.17;96278.06;4235555;27;5658;-68
2023/04/24 02:02:52;;;;;;;;;;;;;;;14.26;63.09;96281.72;4233404;28;5654;-67
2023/04/24 02:04:56;;;;;;;;;;;;;;;14.26;63.29;96276.41;4233288;28;5659;-67
2023/04/24 02:06:59;;;;;;;;;;;;;;;14.25;63.05;96275.63;4241231;27;5730;-67
2023/04/24 02:09:02;;;;;;;;;;;;;;;14.25;63.23;96272.94;4233055;28;5841;-67
2023/04/24 02:11:05;;;;;;;;;;;;;;;14.26;62.95;96271.09;4241002;27;5629;-67
2023/04/24 02:13:09;;;;;;;;;;;;;;;14.25;63.16;96274.81;4233016;28;5654;-68
2023/04/24 02:15:14;;;;;;;;;;;;;;;14.25;63.24;96274.81;4231159;28;5646;-67
2023/04/24 02:17:18;;;;;;;;;;;;;;;14.24;63.13;96275.84;4235377;27;5612;-67
2023/04/24 02:19:21;;;;;;;;;;;;;;;14.26;62.85;96269.25;4232405;28;5703;-67
2023/04/24 02:21:25;;;;;;;;;;;;;;;14.27;63.18;96276.22;4233624;28;5666;-67
2023/04/24 02:23:27;;;;;;;;;;;;;;;14.31;62.88;96275.75;4233466;28;5661;-67
2023/04/24 02:25:30;;;;;;;;;;;;;;;14.30;62.82;96274.94;4232320;28;5659;-67
2023/04/24 02:27:33;;;;;;;;;;;;;;;14.31;63.17;96278.41;4237614;27;5632;-67
2023/04/24 02:29:38;;;;;;;;;;;;;;;14.35;62.86;96282.22;4238136;27;5635;-67
2023/04/24 02:31:40;;;;;;;;;;;;;;;14.34;63.20;96276.09;4235560;27;5617;-66
2023/04/24 02:33:43;;;;;;;;;;;;;;;14.38;62.77;96273.78;4232909;28;5104;-66
2023/04/24 02:35:46;;;;;;;;;;;;;;;14.36;63.01;96282.00;4233206;27;5662;-66
2023/04/24 02:37:49;;;;;;;;;;;;;;;14.34;63.17;96289.38;4238703;27;5633;-66
2023/04/24 02:39:52;;;;;;;;;;;;;;;14.36;63.02;96281.19;4232779;27;5646;-66
2023/04/24 02:41:55;;;;;;;;;;;;;;;14.38;63.00;96269.25;4233583;28;5754;-67
2023/04/24 02:43:58;;;;;;;;;;;;;;;14.39;62.96;96278.91;4234386;27;5775;-67
2023/04/24 02:46:02;;;;;;;;;;;;;;;14.39;62.79;96278.09;4232676;28;5096;-66
2023/04/24 02:48:05;;;;;;;;;;;;;;;14.39;63.11;96283.41;4240405;27;5632;-67
2023/04/24 02:50:09;;;;;;;;;;;;;;;14.37;62.95;96280.94;4241302;27;5635;-67
2023/04/24 02:52:13;;;;;;;;;;;;;;;14.37;62.95;96288.94;4236198;27;6350;-67
2023/04/24 02:54:15;;;;;;;;;;;;;;;14.38;63.08;96295.84;4245643;27;5646;-67
2023/04/24 02:56:18;;;;;;;;;;;;;;;14.37;63.05;96294.25;4237769;27;5792;-69
2023/04/24 02:58:21;;;;;;;;;;;;;;;14.39;62.94;96289.53;4250634;27;5790;-67
2023/04/24 03:00:25;;;;;;;;;;;;;;;14.40;62.92;96285.03;4241168;27;6745;-66
2023/04/24 03:02:29;;;;;;;;;;;;;;;14.40;62.84;96285.81;4238792;27;5724;-66
2023/04/24 03:04:32;;;;;;;;;;;;;;;14.38;63.25;96295.84;4240920;27;5642;-67
2023/04/24 03:06:36;;;;;;;;;;;;;;;14.36;62.97;96297.13;4249218;27;5723;-66
2023/04/24 03:08:39;;;;;;;;;;;;;;;14.34;63.28;96300.03;4242779;27;5802;-66
2023/04/24 03:10:41;;;;;;;;;;;;;;;14.32;63.29;96291.47;4237250;27;5123;-66
2023/04/24 03:12:44;;;;;;;;;;;;;;;14.32;63.34;96291.47;4238457;27;5798;-66
2023/04/24 03:14:47;;;;;;;;;;;;;;;14.31;63.29;96295.16;4240506;27;5733;-66
2023/04/24 03:16:50;;;;;;;;;;;;;;;14.30;63.35;96298.88;4232763;28;5715;-67
2023/04/24 03:18:55;;;;;;;;;;;;;;;14.31;63.06;96305.00;4229025;27;6835;-68
2023/04/24 03:20:58;;;;;;;;;;;;;;;14.30;63.14;96306.84;4244623;27;5748;-67
2023/04/24 03:23:00;;;;;;;;;;;;;;;14.30;63.13;96308.69;4237815;27;5646;-67
2023/04/24 03:25:04;;;;;;;;;;;;;;;14.30;63.25;96317.47;4237430;27;5654;-67
2023/04/24 03:27:08;;;;;;;;;;;;;;;14.31;63.06;96316.44;4230716;27;5657;-68
2023/04/24 03:29:10;;;;;;;;;;;;;;;14.33;62.96;96322.34;4234958;27;5685;-68
2023/04/24 03:31:15;;;;;;;;;;;;;;;14.30;62.98;96329.97;4243071;27;5706;-67
2023/04/24 03:33:17;;;;;;;;;;;;;;;14.29;63.02;96326.50;4250866;27;5668;-68
2023/04/24 03:35:22;;;;;;;;;;;;;;;14.29;63.13;96329.16;4234958;27;5793;-68
2023/04/24 03:37:26;;;;;;;;;;;;;;;14.27;63.09;96320.59;4244294;27;5628;-68
2023/04/24 03:39:29;;;;;;;;;;;;;;;14.25;62.97;96320.81;4244952;27;5868;-67
2023/04/24 03:41:32;;;;;;;;;;;;;;;14.27;62.93;96316.09;4237466;27;5731;-68
2023/04/24 03:43:34;;;;;;;;;;;;;;;14.27;63.22;96318.75;4248749;27;5836;-68
2023/04/24 03:45:37;;;;;;;;;;;;;;;14.26;63.10;96314.44;4241796;27;5671;-68
2023/04/24 03:47:40;;;;;;;;;;;;;;;14.25;63.20;96322.66;4247270;27;5723;-68
2023/04/24 03:49:43;;;;;;;;;;;;;;;14.23;63.29;96320.22;4238535;27;5769;-65
2023/04/24 03:51:47;;;;;;;;;;;;;;;14.23;63.25;96314.09;4240543;27;5684;-69
2023/04/24 03:53:50;;;;;;;;;;;;;;;14.26;63.48;96324.28;4233131;27;5832;-66
2023/04/24 03:55:53;;;;;;;;;;;;;;;14.30;63.38;96325.47;4228111;27;5152;-66
2023/04/24 03:57:56;;;;;;;;;;;;;;;14.29;63.41;96323.84;4228592;27;5814;-67
2023/04/24 03:59:59;;;;;;;;;;;;;;;14.29;63.38;96323.84;4230067;27;5729;-67
2023/04/24 04:02:02;;;;;;;;;;;;;;;14.31;63.20;96321.75;4234166;27;5649;-67
2023/04/24 04:04:05;;;;;;;;;;;;;;;14.33;63.21;96322.34;4242496;27;5654;-67
2023/04/24 04:06:10;;;;;;;;;;;;;;;14.34;63.27;96320.50;4235291;27;6444;-67
2023/04/24 04:08:15;;;;;;;;;;;;;;;14.35;63.28;96327.44;4244734;27;5719;-67
2023/04/24 04:10:18;;;;;;;;;;;;;;;14.36;63.38;96327.19;4243217;27;6326;-67
2023/04/24 04:12:21;;;;;;;;;;;;;;;14.37;63.42;96326.16;4234314;27;5721;-67
2023/04/24 04:14:24;;;;;;;;;;;;;;;14.36;63.35;96329.03;4241219;27;5678;-67
2023/04/24 04:16:27;;;;;;;;;;;;;;;14.35;63.36;96322.91;4237293;27;6272;-67
2023/04/24 04:18:30;;;;;;;;;;;;;;;14.35;63.38;96324.75;4237817;27;5738;-67
2023/04/24 04:20:32;;;;;;;;;;;;;;;14.35;63.26;96332.75;4238292;27;5217;-67
2023/04/24 04:22:35;;;;;;;;;;;;;;;14.34;63.63;96329.28;4243992;27;5617;-67
2023/04/24 04:24:40;;;;;;;;;;;;;;;14.33;63.32;96329.50;4242322;27;5745;-66
2023/04/24 04:26:46;;;;;;;;;;;;;;;14.31;63.63;96332.41;4240314;27;5636;-67
2023/04/24 04:28:49;;;;;;;;;;;;;;;14.30;63.53;96337.94;4232846;27;5643;-67
2023/04/24 04:30:53;;;;;;;;;;;;;;;14.30;63.68;96337.94;4232756;27;5667;-68
2023/04/24 04:32:56;;;;;;;;;;;;;;;14.30;63.54;96341.41;4235651;27;5634;-67
2023/04/24 04:35:02;;;;;;;;;;;;;;;14.28;63.55;96338.19;4228196;27;5735;-67
2023/04/24 04:37:05;;;;;;;;;;;;;;;14.31;63.54;96344.88;4251293;27;5704;-67
2023/04/24 04:39:08;;;;;;;;;;;;;;;14.31;63.47;96348.34;4232950;27;5474;-67
2023/04/24 04:41:13;;;;;;;;;;;;;;;14.32;63.40;96349.16;4241861;27;7699;-66
2023/04/24 04:43:15;;;;;;;;;;;;;;;14.31;63.34;96348.34;4229313;27;5649;-66
2023/04/24 04:45:18;;;;;;;;;;;;;;;14.30;63.51;96352.06;4239969;27;5654;-66
2023/04/24 04:47:23;;;;;;;;;;;;;;;14.29;63.60;96353.09;4245544;27;5628;-68
2023/04/24 04:49:28;;;;;;;;;;;;;;;14.32;63.74;96370.44;4236263;27;5651;-66
2023/04/24 04:51:31;;;;;;;;;;;;;;;14.31;63.61;96369.63;4233935;27;5667;-65
2023/04/24 04:53:34;;;;;;;;;;;;;;;14.30;63.49;96367.19;4242355;27;5784;-68
2023/04/24 04:55:37;;;;;;;;;;;;;;;14.30;63.77;96365.34;4242769;27;6382;-67
2023/04/24 04:57:41;;;;;;;;;;;;;;;14.29;63.88;96361.06;4242241;27;5848;-67
2023/04/24 04:59:44;;;;;;;;;;;;;;;14.30;63.71;96368.00;4233339;27;5639;-66
2023/04/24 05:01:47;;;;;;;;;;;;;;;14.28;63.83;96378.06;4230255;27;5792;-67
2023/04/24 05:03:50;;;;;;;;;;;;;;;14.26;63.83;96388.91;4234464;27;5809;-67
2023/04/24 05:05:53;;;;;;;;;;;;;;;14.23;63.80;96372.59;4233873;27;5782;-67
2023/04/24 05:07:56;;;;;;;;;;;;;;;14.25;63.84;96383.81;4240534;27;5630;-69
2023/04/24 05:09:59;;;;;;;;;;;;;;;14.26;63.82;96388.09;4241040;27;5632;-68
2023/04/24 05:12:02;;;;;;;;;;;;;;;14.29;63.82;96403.59;4231960;27;5633;-66
2023/04/24 05:14:06;;;;;;;;;;;;;;;14.30;63.77;96397.25;4231969;27;5789;-68
2023/04/24 05:16:09;;;;;;;;;;;;;;;14.32;63.80;96394.38;4239221;27;5889;-66
2023/04/24 05:18:12;;;;;;;;;;;;;;;14.33;63.82;96395.97;4217725;27;7020;-66
2023/04/24 05:20:15;;;;;;;;;;;;;;;14.27;63.76;96411.00;4230487;27;5749;-67
2023/04/24 05:22:19;;;;;;;;;;;;;;;14.24;64.06;96406.13;4242166;27;5641;-65
2023/04/24 05:24:22;;;;;;;;;;;;;;;14.22;63.79;96414.31;4225046;27;5740;-65
2023/04/24 05:26:25;;;;;;;;;;;;;;;14.15;63.82;96412.78;4236188;27;5686;-65
2023/04/24 05:28:28;;;;;;;;;;;;;;;14.13;64.18;96414.84;4232352;27;5309;-65
2023/04/24 05:30:32;;;;;;;;;;;;;;;14.15;63.84;96410.94;4231977;27;7726;-67
2023/04/24 05:32:35;;;;;;;;;;;;;;;14.13;64.17;96422.81;4231608;27;5645;-65
2023/04/24 05:34:38;;;;;;;;;;;;;;;14.12;64.14;96419.34;4231862;27;5632;-70
2023/04/24 05:36:43;;;;;;;;;;;;;;;14.12;63.99;96423.88;4227748;27;6046;-68
2023/04/24 05:38:46;;;;;;;;;;;;;;;14.11;64.37;96423.06;4228883;27;5809;-68
2023/04/24 05:40:49;;;;;;;;;;;;;;;14.17;64.27;96426.69;4238033;27;5625;-66
2023/04/24 05:42:52;;;;;;;;;;;;;;;14.22;64.10;96432.94;4236684;27;5654;-67
2023/04/24 05:44:56;;;;;;;;;;;;;;;14.27;64.31;96442.91;4234544;28;5654;-67
2023/04/24 05:47:01;;;;;;;;;;;;;;;14.30;64.04;96439.78;4242636;27;5701;-66
2023/04/24 05:49:04;;;;;;;;;;;;;;;14.30;64.14;96437.13;4250599;27;5783;-66
2023/04/24 05:51:08;;;;;;;;;;;;;;;14.32;64.02;96439.56;4234205;27;5673;-65
2023/04/24 05:53:12;;;;;;;;;;;;;;;14.29;63.96;96443.50;4234748;27;5800;-65
2023/04/24 05:55:18;;;;;;;;;;;;;;;14.30;63.99;96447.78;4243069;27;5737;-65
2023/04/24 05:57:21;;;;;;;;;;;;;;;14.27;63.96;96443.72;4243420;27;5636;-66
2023/04/24 05:59:24;;;;;;;;;;;;;;;14.28;64.22;96445.34;4241548;27;5692;-66
2023/04/24 06:01:27;;;;;;;;;;;;;;;14.30;64.12;96447.78;4236873;27;5650;-65
2023/04/24 06:03:31;;;;;;;;;;;;;;;14.31;64.16;96452.06;4242731;27;5740;-66
2023/04/24 06:05:34;;;;;;;;;;;;;;;14.31;64.13;96453.91;4233880;27;5782;-65
2023/04/24 06:07:37;;;;;;;;;;;;;;;14.30;63.87;96447.78;4231435;27;5757;-66
2023/04/24 06:09:42;;;;;;;;;;;;;;;14.23;64.24;96449.69;4242711;27;5773;-65
2023/04/24 06:11:45;;;;;;;;;;;;;;;14.16;64.37;96451.66;4242657;27;5663;-65
2023/04/24 06:13:48;;;;;;;;;;;;;;;14.11;64.63;96456.81;4236164;27;5666;-65
2023/04/24 06:15:51;;;;;;;;;;;;;;;14.11;64.56;96459.47;4227068;27;5766;-66
2023/04/24 06:17:54;;;;;;;;;;;;;;;14.09;64.55;96456.22;4236211;27;5638;-65
2023/04/24 06:19:59;;;;;;;;;;;;;;;14.08;64.70;96471.34;4232088;27;5643;-66
2023/04/24 06:22:02;;;;;;;;;;;;;;;14.14;64.72;96473.09;4233092;27;5721;-66
2023/04/24 06:24:05;;;;;;;;;;;;;;;14.19;64.60;96470.59;4241151;27;5716;-68
2023/04/24 06:26:09;;;;;;;;;;;;;;;14.19;64.28;96469.78;4231651;27;5873;-66
2023/04/24 06:28:12;;;;;;;;;;;;;;;14.19;64.34;96467.94;4232121;27;5662;-66
2023/04/24 06:30:15;;;;;;;;;;;;;;;14.21;64.50;96465.88;4247932;27;5779;-66
2023/04/24 06:32:17;;;;;;;;;;;;;;;14.21;64.25;96468.53;4252545;27;5720;-66
2023/04/24 06:34:20;;;;;;;;;;;;;;;14.22;64.66;96467.50;4238464;27;5621;-67
2023/04/24 06:36:25;;;;;;;;;;;;;;;14.23;64.49;96461.13;4237226;27;5785;-67
2023/04/24 06:38:29;;;;;;;;;;;;;;;14.25;64.42;96474.19;4239544;27;5749;-67
2023/04/24 06:40:33;;;;;;;;;;;;;;;14.27;64.44;96467.66;4245547;27;5727;-67
2023/04/24 06:42:36;;;;;;;;;;;;;;;14.31;64.26;96469.84;4244799;27;5625;-67
2023/04/24 06:44:41;;;;;;;;;;;;;;;14.34;64.48;96475.53;4234380;27;5667;-67
2023/04/24 06:46:44;;;;;;;;;;;;;;;14.32;64.11;96480.25;4238543;27;5696;-68
2023/04/24 06:48:47;;;;;;;;;;;;;;;14.32;64.11;96485.56;4245169;27;5741;-67
2023/04/24 06:50:50;;;;;;;;;;;;;;;14.30;64.16;96485.00;4237523;27;5646;-66
2023/04/24 06:52:54;;;;;;;;;;;;;;;14.27;64.30;96488.09;4236169;28;5732;-66
2023/04/24 06:55:01;;;;;;;;;;;;;;;14.26;64.10;96494.44;4237001;28;6340;-66
2023/04/24 06:57:04;;;;;;;;;;;;;;;14.23;64.39;96494.88;4235812;28;5729;-67
2023/04/24 06:59:14;;;;;;;;;;;;;;;14.22;64.44;96493.28;4221169;27;6349;-67
2023/04/24 07:01:17;;;;;;;;;;;;;;;14.20;64.11;96496.16;4242734;27;5649;-67
2023/04/24 07:03:20;;;;;;;;;;;;;;;14.15;64.05;96497.84;4237589;27;5646;-67
2023/04/24 07:05:23;;;;;;;;;;;;;;;14.14;64.48;96501.53;4247478;27;5673;-67
2023/04/24 07:07:27;;;;;;;;;;;;;;;14.19;64.46;96499.03;4237527;27;5646;-68
2023/04/24 07:09:31;;;;;;;;;;;;;;;14.20;64.19;96498.81;4245203;27;5760;-68
2023/04/24 07:11:35;;;;;;;;;;;;;;;14.25;64.24;96498.13;4222362;28;5688;-68
2023/04/24 07:13:41;;;;;;;;;;;;;;;14.27;64.12;96498.75;4240869;27;5650;-68
2023/04/24 07:15:44;;;;;;;;;;;;;;;14.27;64.15;96506.72;4235519;28;5646;-68
2023/04/24 07:17:47;;;;;;;;;;;;;;;14.27;64.26;96512.03;4219645;28;5667;-69
2023/04/24 07:19:50;;;;;;;;;;;;;;;14.30;64.10;96516.09;4232197;27;5725;-68
2023/04/24 07:21:54;;;;;;;;;;;;;;;14.34;64.00;96518.06;4221608;27;5664;-67
2023/04/24 07:23:58;;;;;;;;;;;;;;;14.42;63.94;96516.97;4242521;27;5756;-67
2023/04/24 07:26:03;;;;;;;;;;;;;;;14.48;63.81;96522.22;4222951;28;5793;-68
2023/04/24 07:28:06;;;;;;;;;;;;;;;14.51;63.81;96519.13;4243479;27;5741;-67
2023/04/24 07:30:10;;;;;;;;;;;;;;;14.53;63.89;96522.38;4240807;27;5881;-68
2023/04/24 07:32:13;;;;;;;;;;;;;;;14.57;63.67;96525.38;4228157;27;5761;-67
2023/04/24 07:34:17;;;;;;;;;;;;;;;14.57;63.71;96526.19;4246394;27;5762;-68
2023/04/24 07:36:22;;;;;;;;;;;;;;;14.56;63.86;96527.22;4245357;27;5920;-67
2023/04/24 07:38:25;;;;;;;;;;;;;;;14.61;63.85;96528.41;4243673;27;6190;-68
2023/04/24 07:40:29;;;;;;;;;;;;;;;14.65;63.82;96524.28;4239205;27;5646;-67
2023/04/24 07:42:34;;;;;;;;;;;;;;;14.71;63.64;96528.69;4247640;27;5624;-68
2023/04/24 07:44:37;;;;;;;;;;;;;;;14.69;63.64;96528.91;4253205;27;5613;-68
2023/04/24 07:46:41;;;;;;;;;;;;;;;14.70;63.93;96519.06;4238780;27;5597;-68
2023/04/24 07:48:47;;;;;;;;;;;;;;;14.74;63.85;96533.56;4249323;27;5719;-67
2023/04/24 07:51:03;;;;;;;;;;;;;;;14.78;63.85;96534.72;4244438;27;5617;-67
2023/04/24 07:53:07;;;;;;;;;;;;;;;14.77;63.64;96538.44;4232945;27;5646;-67
2023/04/24 07:55:10;;;;;;;;;;;;;;;14.78;63.68;96545.38;4236500;28;5667;-67
2023/04/24 07:57:14;;;;;;;;;;;;;;;14.84;63.62;96545.28;4240732;27;5793;-67
2023/04/24 07:59:18;;;;;;;;;;;;;;;14.87;63.65;96541.38;4236751;27;5717;-68
2023/04/24 08:01:21;;;;;;;;;;;;;;;14.89;63.61;96549.94;4237199;27;5828;-67
2023/04/24 08:03:24;;;;;;;;;;;;;;;14.90;63.69;96554.22;4241712;27;7737;-68
2023/04/24 08:05:28;;;;;;;;;;;;;;;14.89;63.56;96552.59;4250247;27;5620;-68
2023/04/24 08:07:32;;;;;;;;;;;;;;;14.90;63.48;96553.41;4234494;27;5642;-67
2023/04/24 08:09:35;;;;;;;;;;;;;;;14.91;63.38;96565.66;4244051;27;5682;-67
2023/04/24 08:11:41;;;;;;;;;;;;;;;14.91;63.33;96563.81;4248669;27;5743;-67
2023/04/24 08:13:44;;;;;;;;;;;;;;;14.95;63.47;96566.84;4238270;27;5771;-68
2023/04/24 08:15:48;;;;;;;;;;;;;;;14.99;63.25;96560.84;4235453;28;5815;-69
2023/04/24 08:17:52;;;;;;;;;;;;;;;14.99;63.08;96574.16;4246614;27;5757;-68
2023/04/24 08:20:02;;;;;;;;;;;;;;;14.97;63.13;96575.44;4241426;27;5626;-67
2023/04/24 08:22:05;;;;;;;;;;;;;;;15.00;63.11;96570.44;4243527;27;5699;-68
2023/04/24 08:24:08;;;;;;;;;;;;;;;15.01;62.81;96572.06;4230016;27;5899;-68
2023/04/24 08:26:11;;;;;;;;;;;;;;;15.05;62.58;96575.91;4234205;27;5787;-67
2023/04/24 08:28:19;;;;;;;;;;;;;;;15.04;62.53;96574.28;4238285;27;6466;-67
2023/04/24 08:30:23;;;;;;;;;;;;;;;15.05;62.49;96583.06;4239143;27;5075;-67
2023/04/24 08:32:28;;;;;;;;;;;;;;;15.05;62.39;96583.88;4240946;27;7714;-68
2023/04/24 08:34:31;;;;;;;;;;;;;;;15.06;62.14;96585.53;4240077;27;5642;-67
2023/04/24 08:36:35;;;;;;;;;;;;;;;15.05;62.42;96597.19;4237810;27;5794;-68
2023/04/24 08:38:48;;;;;;;;;;;;;;;15.11;62.29;96587.50;4246003;27;5708;-67
2023/04/24 08:40:51;;;;;;;;;;;;;;;15.11;62.01;96598.16;4245364;27;5683;-67
2023/04/24 08:42:56;;;;;;;;;;;;;;;15.08;61.84;96594.09;4219215;27;5659;-67
2023/04/24 08:44:59;;;;;;;;;;;;;;;15.06;61.88;96595.34;4249016;27;5720;-68
2023/04/24 08:47:03;;;;;;;;;;;;;;;15.03;61.87;96591.28;4234169;27;6339;-68
2023/04/24 08:49:07;;;;;;;;;;;;;;;14.99;61.77;96590.13;4250469;27;5737;-67
2023/04/24 08:51:10;;;;;;;;;;;;;;;15.00;61.51;96597.06;4227845;27;5662;-67
2023/04/24 08:53:13;;;;;;;;;;;;;;;14.99;61.23;96606.09;4221592;28;5740;-67
2023/04/24 08:55:18;;;;;;;;;;;;;;;15.02;61.11;96608.31;4230942;27;5753;-67
2023/04/24 08:57:21;;;;;;;;;;;;;;;15.06;60.89;96604.16;4228741;27;5941;-68
2023/04/24 08:59:24;;;;;;;;;;;;;;;15.08;60.77;96604.75;4234039;28;5666;-68
2023/04/24 09:01:28;;;;;;;;;;;;;;;15.10;60.24;96605.34;4233747;27;5792;-68
2023/04/24 09:03:32;;;;;;;;;;;;;;;15.09;59.82;96601.06;4228913;27;5729;-67
2023/04/24 09:05:37;;;;;;;;;;;;;;;15.07;59.40;96597.00;4234079;27;5889;-68
2023/04/24 09:07:45;;;;;;;;;;;;;;;15.13;58.91;96599.53;4243005;27;5632;-68
2023/04/24 09:09:51;;;;;;;;;;;;;;;15.17;58.73;96591.09;4234203;27;5638;-68
2023/04/24 09:11:55;;;;;;;;;;;;;;;15.22;58.31;96596.56;4237819;27;6465;-68
2023/04/24 09:13:59;;;;;;;;;;;;;;;15.31;58.30;96605.88;4234237;28;5767;-68
2023/04/24 09:16:02;;;;;;;;;;;;;;;15.39;57.95;96602.84;4241632;27;5638;-68
2023/04/24 09:18:05;;;;;;;;;;;;;;;15.45;57.74;96609.94;4224366;27;5641;-65
2023/04/24 09:20:09;;;;;;;;;;;;;;;15.50;57.70;96606.59;4235309;27;5636;-67
2023/04/24 09:22:13;;;;;;;;;;;;;;;15.54;57.32;96603.25;4235146;27;5836;-66
2023/04/24 09:24:18;;;;;;;;;;;;;;;15.59;57.19;96611.38;4250393;27;5772;-67
2023/04/24 09:26:23;;;;;;;;;;;;;;;15.61;57.22;96614.63;4234493;28;5136;-67
2023/04/24 09:28:27;;;;;;;;;;;;;;;15.58;56.98;96616.94;4225587;27;5734;-67
2023/04/24 09:30:31;;;;;;;;;;;;;;;15.57;56.53;96618.78;4233340;27;5640;-68
2023/04/24 09:32:35;;;;;;;;;;;;;;;15.57;56.57;96623.31;4235014;27;6023;-68
2023/04/24 09:34:38;;;;;;;;;;;;;;;15.60;56.83;96620.19;4217461;28;5799;-68
2023/04/24 09:36:42;;;;;;;;;;;;;;;15.61;56.67;96616.50;4217020;28;5655;-67
2023/04/24 09:38:47;;;;;;;;;;;;;;;15.58;56.34;96615.06;4228241;27;5667;-67
2023/04/24 09:40:50;;;;;;;;;;;;;;;15.63;56.49;96622.44;4232669;28;5601;-68
2023/04/24 09:42:56;;;;;;;;;;;;;;;15.65;56.16;96623.81;4234791;27;5638;-67
2023/04/24 09:44:59;;;;;;;;;;;;;;;15.66;55.98;96625.44;4234223;28;5794;-68
2023/04/24 09:47:17;;;;;;;;;;;;;;;15.71;56.16;96619.41;4242868;27;5712;-67
2023/04/24 09:49:23;;;;;;;;;;;;;;;15.70;55.83;96615.94;4234083;27;5733;-67
2023/04/24 09:51:37;;;;;;;;;;;;;;;15.71;55.72;96624.75;4229862;27;7180;-67
2023/04/24 09:53:40;;;;;;;;;;;;;;;15.76;55.42;96621.41;4247314;27;5745;-68
2023/04/24 09:55:48;;;;;;;;;;;;;;;15.74;55.05;96626.94;4239063;27;5625;-68
2023/04/24 09:57:52;;;;;;;;;;;;;;;15.72;54.90;96621.03;4243525;27;5694;-68
2023/04/24 09:59:55;;;;;;;;;;;;;;;15.68;54.86;96615.34;4227302;27;5636;-67
2023/04/24 10:01:58;;;;;;;;;;;;;;;15.68;54.67;96626.03;4226679;27;5710;-69
2023/04/24 10:04:02;;;;;;;;;;;;;;;15.72;54.45;96631.69;4240127;27;5609;-69
2023/04/24 10:06:08;;;;;;;;;;;;;;;15.79;54.37;96629.75;4250918;27;5723;-68
2023/04/24 10:08:13;;;;;;;;;;;;;;;15.84;54.16;96618.38;4229687;27;5664;-68
2023/04/24 10:10:16;;;;;;;;;;;;;;;15.86;54.00;96621.66;4244945;27;5756;-67
2023/04/24 10:12:21;;;;;;;;;;;;;;;15.88;53.79;96625.72;4249652;27;6508;-68
2023/04/24 10:14:26;;;;;;;;;;;;;;;15.90;53.52;96620.13;4235530;27;5642;-67
2023/04/24 10:16:29;;;;;;;;;;;;;;;15.89;53.71;96621.19;4251055;27;5914;-67
2023/04/24 10:18:33;;;;;;;;;;;;;;;15.88;53.35;96614.22;4251014;27;5708;-67
2023/04/24 10:20:38;;;;;;;;;;;;;;;15.88;53.28;96616.91;4233595;27;5737;-68
2023/04/24 10:22:41;;;;;;;;;;;;;;;15.90;53.19;96612.94;4233144;27;5792;-68
2023/04/24 10:24:46;;;;;;;;;;;;;;;15.97;52.85;96616.31;4244485;27;5629;-68
2023/04/24 10:26:49;;;;;;;;;;;;;;;16.02;52.73;96618.28;4236683;27;5780;-70
2023/04/24 10:28:55;;;;;;;;;;;;;;;16.09;52.49;96615.53;4234315;27;5643;-68
2023/04/24 10:30:59;;;;;;;;;;;;;;;16.18;52.45;96620.25;4241052;27;5748;-68
2023/04/24 10:33:03;;;;;;;;;;;;;;;16.23;52.05;96619.56;4243541;27;5760;-68
2023/04/24 10:35:08;;;;;;;;;;;;;;;16.30;52.19;96614.91;4233211;27;5674;-68
2023/04/24 10:37:11;;;;;;;;;;;;;;;16.38;51.95;96614.56;4235435;27;5658;-69
2023/04/24 10:39:15;;;;;;;;;;;;;;;16.46;51.63;96613.41;4236116;27;5632;-68
2023/04/24 10:41:22;;;;;;;;;;;;;;;16.51;51.53;96616.16;4246256;27;5700;-67
2023/04/24 10:43:25;;;;;;;;;;;;;;;16.53;51.44;96614.06;4233192;28;5634;-67
2023/04/24 10:45:30;;;;;;;;;;;;;;;16.54;51.29;96618.38;4233581;28;5804;-68
2023/04/24 10:47:40;;;;;;;;;;;;;;;16.49;51.31;96615.59;4237764;27;5628;-67
2023/04/24 10:49:44;;;;;;;;;;;;;;;16.42;51.31;96620.22;4238344;27;5835;-68
2023/04/24 10:51:49;;;;;;;;;;;;;;;16.37;51.21;96610.28;4241437;27;5633;-68
2023/04/24 10:53:52;;;;;;;;;;;;;;;16.34;51.32;96615.28;4240689;27;5555;-67